Pagrindinis puslapis
METAR-TAF:

METAR-TAF

Oro uostai :

Olesiundas, Norvegija

platuma: 62-34N, ilguma: 006-07E, Aukštis: 2 m

Dabartinis oras

Ataskaita buvo paskelbta 19 minutes, ne 03:50 UTC
Vėjas 14 kt iš Šiaurės/Šiaurės Rytų
Temperatūra 10°C
Drėgmė 93%
Slėgis 1017 hPa
Matomumas 10 km arba daugiau
lietus

METAR: ENAL 250350Z AUTO 03014KT 9999 -RA FEW010/// 10/09 Q1017

Laikas: 06:09 (04:09 UTC)

Prognozė

Ataskaita buvo paskelbta 2 valandos ir 9 minutes, ne 02:00 UTC
Prognozė galioja nuo 25 metu 03 UTC su 25 metu 12 UTC
Vėjas 15 kt iš Šiaurės Rytų
Matomumas 10 km arba daugiau
Išsisklaidę debesys ne aukštis 1000 ft
Su prošvaistėmis ne aukštis 2000 ft
lietus, dulksna
Laikinai
nuo 25 metu 03 UTC su 25 metu 08 UTC
Su prošvaistėmis ne aukštis 600 ft

TAF: ENAL 250200Z 2503/2512 04015KT 9999 -RADZ SCT010 BKN020 TEMPO 2503/2508 BKN006

Orai ataskaitas ir orų prognozės (METAR, TAF).

turimą stotys yra geltonos ir raudonos taškus žemėlapyje.

Perkelti pele per norėdami pamatyti stoties vardą.

Tada spustelėkite, norėdami matyti oro stebėjimo ir prognozės.

Norėdami pakeisti žemėlapį: spustelėkite ant žalios mygtukų su juodo kryžiaus žemyn,; žalią mygtuką su brūkšneliu, jei norite nutolinti; arba žalių rodyklių gretimoms žemėlapius.


METAR-TAF: